OOSA 251740Z 2518/2700 20003KT 8000 BKN018 BECMG 2605/2607 18013KT 9999 FEW025 BECMG 2617/2619 VRB03KT